sensor_id;sensor_type;location;lat;lon;timestamp;temperature;humidity
31729;DHT22;18309;43.658;1.312;2023-03-23T00:01:19;16.40;76.80
31729;DHT22;18309;43.658;1.312;2023-03-23T00:03:49;16.40;76.70
31729;DHT22;18309;43.658;1.312;2023-03-23T00:06:17;16.40;76.30
31729;DHT22;18309;43.658;1.312;2023-03-23T00:08:53;16.40;76.30
31729;DHT22;18309;43.658;1.312;2023-03-23T00:11:26;16.40;76.30
31729;DHT22;18309;43.658;1.312;2023-03-23T00:13:55;16.40;75.90
31729;DHT22;18309;43.658;1.312;2023-03-23T00:16:24;16.40;76.30
31729;DHT22;18309;43.658;1.312;2023-03-23T00:18:57;16.40;75.40
31729;DHT22;18309;43.658;1.312;2023-03-23T00:21:28;16.40;75.90
31729;DHT22;18309;43.658;1.312;2023-03-23T00:24:01;16.30;75.70
31729;DHT22;18309;43.658;1.312;2023-03-23T00:26:28;16.30;76.00
31729;DHT22;18309;43.658;1.312;2023-03-23T00:28:55;16.30;75.40
31729;DHT22;18309;43.658;1.312;2023-03-23T00:31:21;16.30;75.80
31729;DHT22;18309;43.658;1.312;2023-03-23T00:33:47;16.30;75.60
31729;DHT22;18309;43.658;1.312;2023-03-23T00:36:13;16.30;75.40
31729;DHT22;18309;43.658;1.312;2023-03-23T00:38:40;16.30;75.60
31729;DHT22;18309;43.658;1.312;2023-03-23T00:41:07;16.30;75.60
31729;DHT22;18309;43.658;1.312;2023-03-23T00:43:33;16.30;75.60
31729;DHT22;18309;43.658;1.312;2023-03-23T00:46:01;16.30;76.40
31729;DHT22;18309;43.658;1.312;2023-03-23T00:48:28;16.20;75.40
31729;DHT22;18309;43.658;1.312;2023-03-23T00:50:55;16.20;76.00
31729;DHT22;18309;43.658;1.312;2023-03-23T00:53:21;16.20;76.60
31729;DHT22;18309;43.658;1.312;2023-03-23T00:55:48;16.20;76.40
31729;DHT22;18309;43.658;1.312;2023-03-23T00:58:16;16.20;76.30
31729;DHT22;18309;43.658;1.312;2023-03-23T01:00:42;16.20;76.50
31729;DHT22;18309;43.658;1.312;2023-03-23T01:03:08;16.20;76.60
31729;DHT22;18309;43.658;1.312;2023-03-23T01:05:38;16.20;76.40
31729;DHT22;18309;43.658;1.312;2023-03-23T01:08:05;16.10;76.80
31729;DHT22;18309;43.658;1.312;2023-03-23T01:10:32;16.10;76.90
31729;DHT22;18309;43.658;1.312;2023-03-23T01:12:59;16.10;77.00
31729;DHT22;18309;43.658;1.312;2023-03-23T01:15:27;16.10;77.50
31729;DHT22;18309;43.658;1.312;2023-03-23T01:17:53;16.00;77.40
31729;DHT22;18309;43.658;1.312;2023-03-23T01:20:18;16.00;77.80
31729;DHT22;18309;43.658;1.312;2023-03-23T01:22:44;16.00;78.20
31729;DHT22;18309;43.658;1.312;2023-03-23T01:25:11;15.90;78.70
31729;DHT22;18309;43.658;1.312;2023-03-23T01:27:39;15.90;78.70
31729;DHT22;18309;43.658;1.312;2023-03-23T01:30:06;15.90;79.20
31729;DHT22;18309;43.658;1.312;2023-03-23T01:32:31;15.90;79.40
31729;DHT22;18309;43.658;1.312;2023-03-23T01:34:58;15.90;79.40
31729;DHT22;18309;43.658;1.312;2023-03-23T01:37:24;15.80;79.80
31729;DHT22;18309;43.658;1.312;2023-03-23T01:39:57;15.80;80.40
31729;DHT22;18309;43.658;1.312;2023-03-23T01:42:24;15.80;80.50
31729;DHT22;18309;43.658;1.312;2023-03-23T01:47:18;15.70;81.20
31729;DHT22;18309;43.658;1.312;2023-03-23T01:49:48;15.70;81.80
31729;DHT22;18309;43.658;1.312;2023-03-23T01:52:23;15.70;82.30
31729;DHT22;18309;43.658;1.312;2023-03-23T01:54:52;15.70;82.90
31729;DHT22;18309;43.658;1.312;2023-03-23T01:57:22;15.60;83.40
31729;DHT22;18309;43.658;1.312;2023-03-23T01:59:51;15.60;83.70
31729;DHT22;18309;43.658;1.312;2023-03-23T02:02:20;15.60;84.20
31729;DHT22;18309;43.658;1.312;2023-03-23T02:04:47;15.60;84.60
31729;DHT22;18309;43.658;1.312;2023-03-23T02:07:14;15.60;85.10
31729;DHT22;18309;43.658;1.312;2023-03-23T02:09:41;15.50;85.00
31729;DHT22;18309;43.658;1.312;2023-03-23T02:12:06;15.50;85.20
31729;DHT22;18309;43.658;1.312;2023-03-23T02:14:32;15.50;85.40
31729;DHT22;18309;43.658;1.312;2023-03-23T02:28:31;15.40;86.40
31729;DHT22;18309;43.658;1.312;2023-03-23T02:41:58;15.30;89.00
31729;DHT22;18309;43.658;1.312;2023-03-23T02:44:28;15.20;89.50
31729;DHT22;18309;43.658;1.312;2023-03-23T02:46:57;15.20;89.50
31729;DHT22;18309;43.658;1.312;2023-03-23T02:49:24;15.20;90.30
31729;DHT22;18309;43.658;1.312;2023-03-23T02:51:51;15.20;90.20
31729;DHT22;18309;43.658;1.312;2023-03-23T02:54:19;15.10;90.30
31729;DHT22;18309;43.658;1.312;2023-03-23T02:56:48;15.10;90.30
31729;DHT22;18309;43.658;1.312;2023-03-23T02:59:16;15.10;90.40
31729;DHT22;18309;43.658;1.312;2023-03-23T03:04:17;15.00;90.60
31729;DHT22;18309;43.658;1.312;2023-03-23T03:06:56;15.00;90.80
31729;DHT22;18309;43.658;1.312;2023-03-23T03:12:08;14.90;91.10
31729;DHT22;18309;43.658;1.312;2023-03-23T03:14:48;14.90;91.20
31729;DHT22;18309;43.658;1.312;2023-03-23T03:19:44;14.90;91.70
31729;DHT22;18309;43.658;1.312;2023-03-23T03:22:12;14.80;92.00
31729;DHT22;18309;43.658;1.312;2023-03-23T03:24:40;14.80;92.20
31729;DHT22;18309;43.658;1.312;2023-03-23T03:27:12;14.80;92.40
31729;DHT22;18309;43.658;1.312;2023-03-23T03:29:41;14.80;92.70
31729;DHT22;18309;43.658;1.312;2023-03-23T03:32:10;14.80;92.90
31729;DHT22;18309;43.658;1.312;2023-03-23T03:34:37;14.80;93.60
31729;DHT22;18309;43.658;1.312;2023-03-23T03:37:04;14.80;93.40
31729;DHT22;18309;43.658;1.312;2023-03-23T03:39:34;14.80;93.50
31729;DHT22;18309;43.658;1.312;2023-03-23T03:42:01;14.80;93.70
31729;DHT22;18309;43.658;1.312;2023-03-23T03:44:26;14.70;93.90
31729;DHT22;18309;43.658;1.312;2023-03-23T03:46:52;14.70;93.90
31729;DHT22;18309;43.658;1.312;2023-03-23T03:49:18;14.70;94.10
31729;DHT22;18309;43.658;1.312;2023-03-23T03:51:44;14.70;94.20
31729;DHT22;18309;43.658;1.312;2023-03-23T03:54:10;14.70;94.30
31729;DHT22;18309;43.658;1.312;2023-03-23T03:56:36;14.70;94.30
31729;DHT22;18309;43.658;1.312;2023-03-23T03:59:06;14.70;94.40
31729;DHT22;18309;43.658;1.312;2023-03-23T04:01:34;14.60;94.60
31729;DHT22;18309;43.658;1.312;2023-03-23T04:04:00;14.60;94.60
31729;DHT22;18309;43.658;1.312;2023-03-23T04:06:26;14.60;94.70
31729;DHT22;18309;43.658;1.312;2023-03-23T04:08:54;14.60;94.80
31729;DHT22;18309;43.658;1.312;2023-03-23T04:11:20;14.60;94.80
31729;DHT22;18309;43.658;1.312;2023-03-23T04:13:46;14.60;95.00
31729;DHT22;18309;43.658;1.312;2023-03-23T04:16:12;14.60;95.00
31729;DHT22;18309;43.658;1.312;2023-03-23T04:18:37;14.50;95.10
31729;DHT22;18309;43.658;1.312;2023-03-23T04:21:04;14.50;95.20
31729;DHT22;18309;43.658;1.312;2023-03-23T04:23:33;14.50;95.30
31729;DHT22;18309;43.658;1.312;2023-03-23T04:26:00;14.50;95.30
31729;DHT22;18309;43.658;1.312;2023-03-23T04:28:26;14.50;95.60
31729;DHT22;18309;43.658;1.312;2023-03-23T04:30:53;14.50;95.60
31729;DHT22;18309;43.658;1.312;2023-03-23T04:33:21;14.40;95.70
31729;DHT22;18309;43.658;1.312;2023-03-23T04:35:47;14.40;95.70
31729;DHT22;18309;43.658;1.312;2023-03-23T04:38:17;14.40;95.80
31729;DHT22;18309;43.658;1.312;2023-03-23T04:40:46;14.50;96.00
31729;DHT22;18309;43.658;1.312;2023-03-23T04:43:12;14.50;96.00
31729;DHT22;18309;43.658;1.312;2023-03-23T04:45:38;14.50;96.30
31729;DHT22;18309;43.658;1.312;2023-03-23T04:48:07;14.50;96.20
31729;DHT22;18309;43.658;1.312;2023-03-23T04:50:34;14.50;96.20
31729;DHT22;18309;43.658;1.312;2023-03-23T04:53:03;14.40;96.20
31729;DHT22;18309;43.658;1.312;2023-03-23T04:55:34;14.50;96.70
31729;DHT22;18309;43.658;1.312;2023-03-23T04:58:04;14.40;96.50
31729;DHT22;18309;43.658;1.312;2023-03-23T05:00:34;14.50;96.60
31729;DHT22;18309;43.658;1.312;2023-03-23T05:03:00;14.50;96.60
31729;DHT22;18309;43.658;1.312;2023-03-23T05:05:27;14.40;96.70
31729;DHT22;18309;43.658;1.312;2023-03-23T05:07:54;14.40;96.80
31729;DHT22;18309;43.658;1.312;2023-03-23T05:10:21;14.50;96.90
31729;DHT22;18309;43.658;1.312;2023-03-23T05:12:46;14.40;97.00
31729;DHT22;18309;43.658;1.312;2023-03-23T05:15:14;14.40;97.00
31729;DHT22;18309;43.658;1.312;2023-03-23T05:17:40;14.40;97.10
31729;DHT22;18309;43.658;1.312;2023-03-23T05:20:11;14.40;97.10
31729;DHT22;18309;43.658;1.312;2023-03-23T05:22:38;14.40;97.20
31729;DHT22;18309;43.658;1.312;2023-03-23T05:25:05;14.40;97.30
31729;DHT22;18309;43.658;1.312;2023-03-23T05:27:31;14.40;97.30
31729;DHT22;18309;43.658;1.312;2023-03-23T05:29:58;14.40;97.50
31729;DHT22;18309;43.658;1.312;2023-03-23T05:32:25;14.40;97.50
31729;DHT22;18309;43.658;1.312;2023-03-23T05:35:00;14.40;97.60
31729;DHT22;18309;43.658;1.312;2023-03-23T05:37:27;14.40;97.60
31729;DHT22;18309;43.658;1.312;2023-03-23T05:39:59;14.40;97.70
31729;DHT22;18309;43.658;1.312;2023-03-23T05:42:27;14.40;97.90
31729;DHT22;18309;43.658;1.312;2023-03-23T05:44:52;14.40;98.00
31729;DHT22;18309;43.658;1.312;2023-03-23T05:47:18;14.30;97.90
31729;DHT22;18309;43.658;1.312;2023-03-23T05:49:44;14.30;98.00
31729;DHT22;18309;43.658;1.312;2023-03-23T05:52:10;14.30;98.10
31729;DHT22;18309;43.658;1.312;2023-03-23T05:54:36;14.40;98.10
31729;DHT22;18309;43.658;1.312;2023-03-23T05:57:03;14.40;98.60
31729;DHT22;18309;43.658;1.312;2023-03-23T05:59:28;14.30;98.20
31729;DHT22;18309;43.658;1.312;2023-03-23T06:01:54;14.30;98.30
31729;DHT22;18309;43.658;1.312;2023-03-23T06:04:21;14.30;98.40
31729;DHT22;18309;43.658;1.312;2023-03-23T06:06:50;14.30;98.40
31729;DHT22;18309;43.658;1.312;2023-03-23T06:09:17;14.30;98.50
31729;DHT22;18309;43.658;1.312;2023-03-23T06:11:43;14.30;98.60
31729;DHT22;18309;43.658;1.312;2023-03-23T06:14:09;14.30;98.70
31729;DHT22;18309;43.658;1.312;2023-03-23T06:16:35;14.30;98.70
31729;DHT22;18309;43.658;1.312;2023-03-23T06:19:01;14.30;98.70
31729;DHT22;18309;43.658;1.312;2023-03-23T06:21:32;14.30;98.80
31729;DHT22;18309;43.658;1.312;2023-03-23T06:23:58;14.30;98.80
31729;DHT22;18309;43.658;1.312;2023-03-23T06:26:33;14.30;98.90
31729;DHT22;18309;43.658;1.312;2023-03-23T06:28:59;14.30;98.90
31729;DHT22;18309;43.658;1.312;2023-03-23T06:31:26;14.30;99.00
31729;DHT22;18309;43.658;1.312;2023-03-23T06:33:52;14.30;99.00
31729;DHT22;18309;43.658;1.312;2023-03-23T06:36:18;14.30;99.00
31729;DHT22;18309;43.658;1.312;2023-03-23T06:38:45;14.30;99.10
31729;DHT22;18309;43.658;1.312;2023-03-23T06:41:11;14.30;99.20
31729;DHT22;18309;43.658;1.312;2023-03-23T06:43:36;14.30;99.20
31729;DHT22;18309;43.658;1.312;2023-03-23T06:46:05;14.30;99.20
31729;DHT22;18309;43.658;1.312;2023-03-23T06:48:31;14.30;99.20
31729;DHT22;18309;43.658;1.312;2023-03-23T06:50:57;14.30;99.20
31729;DHT22;18309;43.658;1.312;2023-03-23T06:53:23;14.40;99.40
31729;DHT22;18309;43.658;1.312;2023-03-23T06:55:50;14.40;99.40
31729;DHT22;18309;43.658;1.312;2023-03-23T06:58:16;14.40;99.40
31729;DHT22;18309;43.658;1.312;2023-03-23T07:00:41;14.40;99.40
31729;DHT22;18309;43.658;1.312;2023-03-23T07:03:08;14.50;99.50
31729;DHT22;18309;43.658;1.312;2023-03-23T07:05:34;14.40;99.50
31729;DHT22;18309;43.658;1.312;2023-03-23T07:08:01;14.40;99.40
31729;DHT22;18309;43.658;1.312;2023-03-23T07:10:27;14.50;99.30
31729;DHT22;18309;43.658;1.312;2023-03-23T07:12:53;14.50;99.30
31729;DHT22;18309;43.658;1.312;2023-03-23T07:15:19;14.30;99.90
31729;DHT22;18309;43.658;1.312;2023-03-23T07:17:46;14.10;99.90
31729;DHT22;18309;43.658;1.312;2023-03-23T07:20:12;14.00;99.90
31729;DHT22;18309;43.658;1.312;2023-03-23T07:22:38;13.90;99.90
31729;DHT22;18309;43.658;1.312;2023-03-23T07:25:04;13.80;99.90
31729;DHT22;18309;43.658;1.312;2023-03-23T07:27:30;13.90;99.90
31729;DHT22;18309;43.658;1.312;2023-03-23T07:29:56;13.90;99.90
31729;DHT22;18309;43.658;1.312;2023-03-23T07:32:23;13.70;99.90
31729;DHT22;18309;43.658;1.312;2023-03-23T07:34:49;13.80;99.90
31729;DHT22;18309;43.658;1.312;2023-03-23T07:37:16;13.90;99.90
31729;DHT22;18309;43.658;1.312;2023-03-23T07:39:42;14.10;99.90
31729;DHT22;18309;43.658;1.312;2023-03-23T07:42:08;14.00;99.90
31729;DHT22;18309;43.658;1.312;2023-03-23T07:44:35;13.80;99.90
31729;DHT22;18309;43.658;1.312;2023-03-23T07:47:01;13.80;99.90
31729;DHT22;18309;43.658;1.312;2023-03-23T07:49:28;13.90;99.90
31729;DHT22;18309;43.658;1.312;2023-03-23T07:51:56;14.10;99.90
31729;DHT22;18309;43.658;1.312;2023-03-23T07:54:23;14.20;99.90
31729;DHT22;18309;43.658;1.312;2023-03-23T07:56:49;14.20;99.90
31729;DHT22;18309;43.658;1.312;2023-03-23T07:59:15;14.20;99.90
31729;DHT22;18309;43.658;1.312;2023-03-23T08:01:41;14.40;99.90
31729;DHT22;18309;43.658;1.312;2023-03-23T08:04:07;14.60;99.90
31729;DHT22;18309;43.658;1.312;2023-03-23T08:06:34;14.70;99.90
31729;DHT22;18309;43.658;1.312;2023-03-23T08:09:00;15.00;99.90
31729;DHT22;18309;43.658;1.312;2023-03-23T08:11:34;15.10;99.20
31729;DHT22;18309;43.658;1.312;2023-03-23T08:14:00;15.10;99.40
31729;DHT22;18309;43.658;1.312;2023-03-23T08:16:26;15.10;99.40
31729;DHT22;18309;43.658;1.312;2023-03-23T08:18:53;15.40;99.10
31729;DHT22;18309;43.658;1.312;2023-03-23T08:21:18;15.40;99.00
31729;DHT22;18309;43.658;1.312;2023-03-23T08:23:46;15.60;98.70
31729;DHT22;18309;43.658;1.312;2023-03-23T08:26:13;15.90;98.30
31729;DHT22;18309;43.658;1.312;2023-03-23T08:28:41;16.10;97.70
31729;DHT22;18309;43.658;1.312;2023-03-23T08:31:10;16.40;97.20
31729;DHT22;18309;43.658;1.312;2023-03-23T08:33:37;16.40;97.20
31729;DHT22;18309;43.658;1.312;2023-03-23T08:36:04;16.60;97.20
31729;DHT22;18309;43.658;1.312;2023-03-23T08:38:30;16.60;97.00
31729;DHT22;18309;43.658;1.312;2023-03-23T08:41:01;16.50;97.20
31729;DHT22;18309;43.658;1.312;2023-03-23T08:43:29;16.20;97.60
31729;DHT22;18309;43.658;1.312;2023-03-23T08:45:55;16.00;97.80
31729;DHT22;18309;43.658;1.312;2023-03-23T08:48:21;15.90;98.10
31729;DHT22;18309;43.658;1.312;2023-03-23T08:50:49;15.90;98.10
31729;DHT22;18309;43.658;1.312;2023-03-23T08:53:15;15.80;98.00
31729;DHT22;18309;43.658;1.312;2023-03-23T08:55:41;15.90;98.20
31729;DHT22;18309;43.658;1.312;2023-03-23T08:58:08;16.00;98.10
31729;DHT22;18309;43.658;1.312;2023-03-23T09:00:34;16.10;97.80
31729;DHT22;18309;43.658;1.312;2023-03-23T09:02:59;16.10;97.90
31729;DHT22;18309;43.658;1.312;2023-03-23T09:05:27;16.00;98.00
31729;DHT22;18309;43.658;1.312;2023-03-23T09:07:55;16.00;98.10
31729;DHT22;18309;43.658;1.312;2023-03-23T09:10:23;16.20;97.70
31729;DHT22;18309;43.658;1.312;2023-03-23T09:12:51;16.20;97.60
31729;DHT22;18309;43.658;1.312;2023-03-23T09:15:17;16.10;98.00
31729;DHT22;18309;43.658;1.312;2023-03-23T09:17:45;16.20;98.20
31729;DHT22;18309;43.658;1.312;2023-03-23T09:20:13;16.30;97.90
31729;DHT22;18309;43.658;1.312;2023-03-23T09:22:41;16.20;98.20
31729;DHT22;18309;43.658;1.312;2023-03-23T09:25:08;16.20;98.40
31729;DHT22;18309;43.658;1.312;2023-03-23T09:27:36;16.40;98.00
31729;DHT22;18309;43.658;1.312;2023-03-23T09:30:06;16.60;97.60
31729;DHT22;18309;43.658;1.312;2023-03-23T09:32:35;16.90;97.30
31729;DHT22;18309;43.658;1.312;2023-03-23T09:35:02;16.90;96.90
31729;DHT22;18309;43.658;1.312;2023-03-23T09:37:29;16.90;97.20
31729;DHT22;18309;43.658;1.312;2023-03-23T09:39:55;16.90;96.70
31729;DHT22;18309;43.658;1.312;2023-03-23T09:50:44;17.60;96.30
31729;DHT22;18309;43.658;1.312;2023-03-23T09:55:42;17.40;95.80
31729;DHT22;18309;43.658;1.312;2023-03-23T10:03:34;17.20;96.20
31729;DHT22;18309;43.658;1.312;2023-03-23T10:06:03;17.20;96.50
31729;DHT22;18309;43.658;1.312;2023-03-23T10:08:32;17.10;96.60
31729;DHT22;18309;43.658;1.312;2023-03-23T10:11:22;17.10;96.80
31729;DHT22;18309;43.658;1.312;2023-03-23T10:16:34;17.20;96.20
31729;DHT22;18309;43.658;1.312;2023-03-23T10:21:59;17.40;96.10
31729;DHT22;18309;43.658;1.312;2023-03-23T10:24:38;17.80;95.70
31729;DHT22;18309;43.658;1.312;2023-03-23T10:27:33;18.10;95.40
31729;DHT22;18309;43.658;1.312;2023-03-23T10:30:15;18.20;94.80
31729;DHT22;18309;43.658;1.312;2023-03-23T10:32:50;18.40;95.00
31729;DHT22;18309;43.658;1.312;2023-03-23T10:35:21;18.50;94.20
31729;DHT22;18309;43.658;1.312;2023-03-23T10:37:56;18.50;93.60
31729;DHT22;18309;43.658;1.312;2023-03-23T10:40:25;18.70;93.60
31729;DHT22;18309;43.658;1.312;2023-03-23T10:42:53;18.90;93.50
31729;DHT22;18309;43.658;1.312;2023-03-23T10:45:29;18.90;93.80
31729;DHT22;18309;43.658;1.312;2023-03-23T10:48:08;18.90;93.80
31729;DHT22;18309;43.658;1.312;2023-03-23T10:50:36;18.40;94.30
31729;DHT22;18309;43.658;1.312;2023-03-23T10:53:28;18.60;94.40
31729;DHT22;18309;43.658;1.312;2023-03-23T10:55:51;18.70;94.40
31729;DHT22;18309;43.658;1.312;2023-03-23T10:58:34;18.90;94.10
31729;DHT22;18309;43.658;1.312;2023-03-23T11:01:01;18.90;94.00
31729;DHT22;18309;43.658;1.312;2023-03-23T11:03:42;19.00;93.90
31729;DHT22;18309;43.658;1.312;2023-03-23T11:06:29;19.00;93.40
31729;DHT22;18309;43.658;1.312;2023-03-23T11:09:09;19.20;93.10
31729;DHT22;18309;43.658;1.312;2023-03-23T11:11:48;19.50;93.00
31729;DHT22;18309;43.658;1.312;2023-03-23T11:16:51;19.30;92.80
31729;DHT22;18309;43.658;1.312;2023-03-23T11:19:35;19.40;93.20
31729;DHT22;18309;43.658;1.312;2023-03-23T11:24:41;19.60;93.40
31729;DHT22;18309;43.658;1.312;2023-03-23T11:27:07;19.80;92.60
31729;DHT22;18309;43.658;1.312;2023-03-23T11:29:35;19.60;92.30
31729;DHT22;18309;43.658;1.312;2023-03-23T11:32:08;19.40;93.10
31729;DHT22;18309;43.658;1.312;2023-03-23T11:37:13;19.50;93.60
31729;DHT22;18309;43.658;1.312;2023-03-23T11:39:53;19.90;92.50
31729;DHT22;18309;43.658;1.312;2023-03-23T11:42:22;20.20;91.70
31729;DHT22;18309;43.658;1.312;2023-03-23T11:44:48;20.50;91.90
31729;DHT22;18309;43.658;1.312;2023-03-23T11:47:39;20.50;91.60
31729;DHT22;18309;43.658;1.312;2023-03-23T11:50:28;20.70;91.10
31729;DHT22;18309;43.658;1.312;2023-03-23T11:53:18;21.30;90.70
31729;DHT22;18309;43.658;1.312;2023-03-23T11:58:30;21.40;90.00
31729;DHT22;18309;43.658;1.312;2023-03-23T12:01:12;21.70;87.50
31729;DHT22;18309;43.658;1.312;2023-03-23T12:09:02;21.30;88.30
31729;DHT22;18309;43.658;1.312;2023-03-23T12:20:26;21.30;88.30
31729;DHT22;18309;43.658;1.312;2023-03-23T12:23:19;21.80;88.50
31729;DHT22;18309;43.658;1.312;2023-03-23T12:26:18;21.70;87.20
31729;DHT22;18309;43.658;1.312;2023-03-23T12:34:34;21.60;87.10
31729;DHT22;18309;43.658;1.312;2023-03-23T12:40:15;21.70;86.70
31729;DHT22;18309;43.658;1.312;2023-03-23T12:48:44;23.10;80.50
31729;DHT22;18309;43.658;1.312;2023-03-23T12:56:35;32.30;61.10
31729;DHT22;18309;43.658;1.312;2023-03-23T13:00:03;34.00;56.20
31729;DHT22;18309;43.658;1.312;2023-03-23T13:02:19;34.50;54.00
31729;DHT22;18309;43.658;1.312;2023-03-23T13:04:50;37.80;52.00
31729;DHT22;18309;43.658;1.312;2023-03-23T13:07:23;39.00;47.80
31729;DHT22;18309;43.658;1.312;2023-03-23T13:10:15;39.80;47.00
31729;DHT22;18309;43.658;1.312;2023-03-23T13:12:46;42.30;43.80
31729;DHT22;18309;43.658;1.312;2023-03-23T13:15:26;41.00;44.20
31729;DHT22;18309;43.658;1.312;2023-03-23T13:23:24;34.80;51.00
31729;DHT22;18309;43.658;1.312;2023-03-23T13:26:07;39.40;45.60
31729;DHT22;18309;43.658;1.312;2023-03-23T13:28:55;37.80;46.90
31729;DHT22;18309;43.658;1.312;2023-03-23T13:31:31;38.80;47.30
31729;DHT22;18309;43.658;1.312;2023-03-23T13:34:10;40.20;42.90
31729;DHT22;18309;43.658;1.312;2023-03-23T13:36:39;37.80;45.40
31729;DHT22;18309;43.658;1.312;2023-03-23T13:39:29;36.60;46.80
31729;DHT22;18309;43.658;1.312;2023-03-23T13:42:30;33.80;51.40
31729;DHT22;18309;43.658;1.312;2023-03-23T13:45:52;32.90;52.20
31729;DHT22;18309;43.658;1.312;2023-03-23T13:50:58;32.80;53.80
31729;DHT22;18309;43.658;1.312;2023-03-23T13:53:28;34.30;52.10
31729;DHT22;18309;43.658;1.312;2023-03-23T13:56:39;32.90;51.70
31729;DHT22;18309;43.658;1.312;2023-03-23T13:59:12;33.10;52.70
31729;DHT22;18309;43.658;1.312;2023-03-23T14:01:39;33.50;52.30
31729;DHT22;18309;43.658;1.312;2023-03-23T14:04:12;36.20;49.00
31729;DHT22;18309;43.658;1.312;2023-03-23T14:06:40;36.20;47.30
31729;DHT22;18309;43.658;1.312;2023-03-23T14:09:28;32.70;52.10
31729;DHT22;18309;43.658;1.312;2023-03-23T14:12:01;32.00;53.60
31729;DHT22;18309;43.658;1.312;2023-03-23T14:14:39;30.10;57.30
31729;DHT22;18309;43.658;1.312;2023-03-23T14:17:19;31.20;57.50
31729;DHT22;18309;43.658;1.312;2023-03-23T14:19:51;29.90;56.40
31729;DHT22;18309;43.658;1.312;2023-03-23T14:22:28;33.30;52.00
31729;DHT22;18309;43.658;1.312;2023-03-23T14:25:26;33.50;53.20
31729;DHT22;18309;43.658;1.312;2023-03-23T14:27:53;34.60;49.60
31729;DHT22;18309;43.658;1.312;2023-03-23T14:30:21;31.60;54.40
31729;DHT22;18309;43.658;1.312;2023-03-23T14:32:48;29.00;58.60
31729;DHT22;18309;43.658;1.312;2023-03-23T14:35:28;27.50;62.40
31729;DHT22;18309;43.658;1.312;2023-03-23T14:37:55;26.50;65.60
31729;DHT22;18309;43.658;1.312;2023-03-23T14:40:21;26.70;65.50
31729;DHT22;18309;43.658;1.312;2023-03-23T14:42:47;26.20;66.00
31729;DHT22;18309;43.658;1.312;2023-03-23T14:45:17;25.10;68.00
31729;DHT22;18309;43.658;1.312;2023-03-23T14:47:56;23.80;73.90
31729;DHT22;18309;43.658;1.312;2023-03-23T14:50:38;22.90;76.40
31729;DHT22;18309;43.658;1.312;2023-03-23T14:53:30;22.60;78.70
31729;DHT22;18309;43.658;1.312;2023-03-23T14:56:34;23.00;77.40
31729;DHT22;18309;43.658;1.312;2023-03-23T14:59:05;22.50;77.60
31729;DHT22;18309;43.658;1.312;2023-03-23T15:01:32;22.90;78.00
31729;DHT22;18309;43.658;1.312;2023-03-23T15:04:09;23.60;75.60
31729;DHT22;18309;43.658;1.312;2023-03-23T15:06:38;23.40;76.90
31729;DHT22;18309;43.658;1.312;2023-03-23T15:09:09;24.00;75.10
31729;DHT22;18309;43.658;1.312;2023-03-23T15:11:38;24.90;71.40
31729;DHT22;18309;43.658;1.312;2023-03-23T15:14:23;24.00;73.30
31729;DHT22;18309;43.658;1.312;2023-03-23T15:16:52;23.30;76.00
31729;DHT22;18309;43.658;1.312;2023-03-23T15:19:38;22.30;79.80
31729;DHT22;18309;43.658;1.312;2023-03-23T15:22:22;21.50;81.80
31729;DHT22;18309;43.658;1.312;2023-03-23T15:24:48;21.10;83.40
31729;DHT22;18309;43.658;1.312;2023-03-23T15:27:32;21.20;84.60
31729;DHT22;18309;43.658;1.312;2023-03-23T15:29:59;21.30;84.20
31729;DHT22;18309;43.658;1.312;2023-03-23T15:33:14;21.90;81.60
31729;DHT22;18309;43.658;1.312;2023-03-23T15:35:41;20.80;84.70
31729;DHT22;18309;43.658;1.312;2023-03-23T15:38:29;21.00;84.70
31729;DHT22;18309;43.658;1.312;2023-03-23T15:41:19;20.70;85.20
31729;DHT22;18309;43.658;1.312;2023-03-23T15:43:50;22.40;82.00
31729;DHT22;18309;43.658;1.312;2023-03-23T15:49:14;28.20;63.90
31729;DHT22;18309;43.658;1.312;2023-03-23T15:51:41;30.00;58.90
31729;DHT22;18309;43.658;1.312;2023-03-23T15:54:16;27.30;62.50
31729;DHT22;18309;43.658;1.312;2023-03-23T15:56:43;26.30;65.80
31729;DHT22;18309;43.658;1.312;2023-03-23T15:59:09;27.00;64.10
31729;DHT22;18309;43.658;1.312;2023-03-23T16:01:36;24.80;70.40
31729;DHT22;18309;43.658;1.312;2023-03-23T16:06:31;26.40;67.00
31729;DHT22;18309;43.658;1.312;2023-03-23T16:08:58;27.70;62.30
31729;DHT22;18309;43.658;1.312;2023-03-23T16:11:26;27.60;63.40
31729;DHT22;18309;43.658;1.312;2023-03-23T16:13:52;25.80;68.10
31729;DHT22;18309;43.658;1.312;2023-03-23T16:16:27;25.50;68.70
31729;DHT22;18309;43.658;1.312;2023-03-23T16:18:53;27.40;63.30
31729;DHT22;18309;43.658;1.312;2023-03-23T16:21:19;27.20;62.90
31729;DHT22;18309;43.658;1.312;2023-03-23T16:23:44;27.20;63.00
31729;DHT22;18309;43.658;1.312;2023-03-23T16:26:12;26.10;65.90
31729;DHT22;18309;43.658;1.312;2023-03-23T16:28:39;26.20;65.90
31729;DHT22;18309;43.658;1.312;2023-03-23T16:31:05;24.50;71.00
31729;DHT22;18309;43.658;1.312;2023-03-23T16:33:31;23.20;76.80
31729;DHT22;18309;43.658;1.312;2023-03-23T16:35:57;22.10;80.20
31729;DHT22;18309;43.658;1.312;2023-03-23T16:38:23;21.50;82.40
31729;DHT22;18309;43.658;1.312;2023-03-23T16:40:49;21.60;82.90
31729;DHT22;18309;43.658;1.312;2023-03-23T16:43:14;21.40;83.20
31729;DHT22;18309;43.658;1.312;2023-03-23T16:45:42;20.00;87.20
31729;DHT22;18309;43.658;1.312;2023-03-23T16:48:08;19.40;90.00
31729;DHT22;18309;43.658;1.312;2023-03-23T16:50:35;19.10;90.60
31729;DHT22;18309;43.658;1.312;2023-03-23T16:53:01;18.70;91.00
31729;DHT22;18309;43.658;1.312;2023-03-23T16:55:28;18.40;91.50
31729;DHT22;18309;43.658;1.312;2023-03-23T16:57:54;18.40;91.80
31729;DHT22;18309;43.658;1.312;2023-03-23T17:00:21;18.00;92.20
31729;DHT22;18309;43.658;1.312;2023-03-23T17:02:49;17.80;92.90
31729;DHT22;18309;43.658;1.312;2023-03-23T17:05:18;17.80;93.10
31729;DHT22;18309;43.658;1.312;2023-03-23T17:07:44;17.60;93.20
31729;DHT22;18309;43.658;1.312;2023-03-23T17:10:11;17.40;93.90
31729;DHT22;18309;43.658;1.312;2023-03-23T17:12:38;17.10;94.30
31729;DHT22;18309;43.658;1.312;2023-03-23T17:15:05;17.10;94.70
31729;DHT22;18309;43.658;1.312;2023-03-23T17:17:31;16.90;95.00
31729;DHT22;18309;43.658;1.312;2023-03-23T17:19:57;16.80;95.20
31729;DHT22;18309;43.658;1.312;2023-03-23T17:22:24;16.60;95.40
31729;DHT22;18309;43.658;1.312;2023-03-23T17:24:50;16.40;95.90
31729;DHT22;18309;43.658;1.312;2023-03-23T17:27:17;16.50;95.80
31729;DHT22;18309;43.658;1.312;2023-03-23T17:29:44;16.30;96.20
31729;DHT22;18309;43.658;1.312;2023-03-23T17:32:11;16.20;96.30
31729;DHT22;18309;43.658;1.312;2023-03-23T17:34:39;16.30;97.10
31729;DHT22;18309;43.658;1.312;2023-03-23T17:37:06;16.90;96.30
31729;DHT22;18309;43.658;1.312;2023-03-23T17:39:32;17.40;95.00
31729;DHT22;18309;43.658;1.312;2023-03-23T17:41:59;17.80;94.20